Portada
METAR-TAF:

METAR-TAF

Aeropuertos :

Limoges, Francia

Aeropuerto de Limoges

latitud: 45-52N, longitud: 001-11E, altitud: 396 m

Observación

El informe se hizo hace 19 minutos, a las 08:00 UTC
Viento 5 kt del sur-sureste, variando entre este-sureste y sur
Temperatura 12°C
Humedad 67%
Presión 1025 hPa
Visibilidad 10 km o más
sin nubes por debajo de 1500 m y sin presencia de cumulonimbus.

METAR: LFBL 280800Z AUTO 15005KT 110V180 CAVOK 12/06 Q1025 NOSIG

Hora: 10:19 (08:19 UTC)

Pronóstico

El informe se hizo hace 3 horas y 19 minutos, a las 05:00 UTC
Pronóstico válido del 28 a las 06 UTC al 29 a las 06 UTC
Viento 5 kt del sureste
Visibilidad 10 km o más
sin nubes por debajo de 1500 m y sin presencia de cumulonimbus.
Probabilidad 30% :
Temporalmente
del 28 a las 13 UTC al 28 a las 16 UTC
Nubes dispersas a una altura de 3000 ft, Cumulus congestus.

TAF: LFBL 280500Z 2806/2906 14005KT CAVOK PROB30 TEMPO 2813/2816 SCT030TCU

Observaciones y pronósticos meteorológicos de más de 4000 aeropuertos (mensajes METAR y TAF).

Los puntos amarillos y rojos representan las estaciones disponibles.

Ponga el ratón en el punto deseado para ver el nombre de la estación.

Haga clic para ver las observaciones y los pronósticos meteorológicos.

Para cambiar el mapa : haga clic en los botones verdes con una cruz de color negro para hacer un zoom, en el botón verde con un guión para alejar o en las flechas verdes para mapas adyacentes.


METAR-TAF: